sensor_id;sensor_type;location;lat;lon;timestamp;temperature;humidity
7014;DHT22;3547;50.774;12.918;2023-05-25T00:36:35;5.20;1.00
7014;DHT22;3547;50.774;12.918;2023-05-25T00:39:02;5.10;1.00
7014;DHT22;3547;50.774;12.918;2023-05-25T00:41:33;5.00;1.00
7014;DHT22;3547;50.774;12.918;2023-05-25T00:44:10;5.00;1.00
7014;DHT22;3547;50.774;12.918;2023-05-25T00:46:43;4.90;1.00
7014;DHT22;3547;50.774;12.918;2023-05-25T00:49:20;4.90;1.00
7014;DHT22;3547;50.774;12.918;2023-05-25T00:51:51;4.80;1.00
7014;DHT22;3547;50.774;12.918;2023-05-25T00:54:24;4.80;1.00
7014;DHT22;3547;50.774;12.918;2023-05-25T00:57:02;4.70;1.00
7014;DHT22;3547;50.774;12.918;2023-05-25T00:59:36;4.80;1.00
7014;DHT22;3547;50.774;12.918;2023-05-25T01:02:08;4.80;1.00
7014;DHT22;3547;50.774;12.918;2023-05-25T01:04:57;4.80;1.00
7014;DHT22;3547;50.774;12.918;2023-05-25T01:07:30;4.70;1.00
7014;DHT22;3547;50.774;12.918;2023-05-25T01:10:14;4.80;1.00
7014;DHT22;3547;50.774;12.918;2023-05-25T01:16:13;4.70;1.00
7014;DHT22;3547;50.774;12.918;2023-05-25T01:18:43;4.80;1.00
7014;DHT22;3547;50.774;12.918;2023-05-25T01:21:47;4.80;1.00
7014;DHT22;3547;50.774;12.918;2023-05-25T01:24:37;4.70;1.00
7014;DHT22;3547;50.774;12.918;2023-05-25T01:27:23;4.70;1.00
7014;DHT22;3547;50.774;12.918;2023-05-25T01:29:53;4.70;1.00
7014;DHT22;3547;50.774;12.918;2023-05-25T01:32:21;4.70;1.00
7014;DHT22;3547;50.774;12.918;2023-05-25T01:34:49;4.70;1.00
7014;DHT22;3547;50.774;12.918;2023-05-25T01:37:17;4.70;1.00
7014;DHT22;3547;50.774;12.918;2023-05-25T01:39:44;4.70;1.00
7014;DHT22;3547;50.774;12.918;2023-05-25T01:42:10;4.70;1.00
7014;DHT22;3547;50.774;12.918;2023-05-25T01:44:38;4.70;1.00
7014;DHT22;3547;50.774;12.918;2023-05-25T01:50:26;4.60;1.00
7014;DHT22;3547;50.774;12.918;2023-05-25T01:56:25;4.60;1.00
7014;DHT22;3547;50.774;12.918;2023-05-25T01:58:56;4.70;1.00
7014;DHT22;3547;50.774;12.918;2023-05-25T02:01:25;4.60;1.00
7014;DHT22;3547;50.774;12.918;2023-05-25T02:03:57;4.40;1.00
7014;DHT22;3547;50.774;12.918;2023-05-25T02:06:24;4.40;1.00
7014;DHT22;3547;50.774;12.918;2023-05-25T02:08:53;4.30;1.00
7014;DHT22;3547;50.774;12.918;2023-05-25T02:14:30;4.40;1.00
7014;DHT22;3547;50.774;12.918;2023-05-25T02:16:57;4.30;1.00
7014;DHT22;3547;50.774;12.918;2023-05-25T02:19:29;4.30;1.00
7014;DHT22;3547;50.774;12.918;2023-05-25T02:22:00;4.30;1.00
7014;DHT22;3547;50.774;12.918;2023-05-25T02:24:28;4.20;1.00
7014;DHT22;3547;50.774;12.918;2023-05-25T02:26:55;4.30;1.00
7014;DHT22;3547;50.774;12.918;2023-05-25T02:29:22;4.30;1.00
7014;DHT22;3547;50.774;12.918;2023-05-25T02:32:06;4.30;1.00
7014;DHT22;3547;50.774;12.918;2023-05-25T02:34:32;4.30;1.00
7014;DHT22;3547;50.774;12.918;2023-05-25T02:37:00;4.40;1.00
7014;DHT22;3547;50.774;12.918;2023-05-25T02:39:28;4.30;1.00
7014;DHT22;3547;50.774;12.918;2023-05-25T02:42:00;4.10;1.00
7014;DHT22;3547;50.774;12.918;2023-05-25T02:44:26;4.00;1.00
7014;DHT22;3547;50.774;12.918;2023-05-25T02:46:54;4.00;1.00
7014;DHT22;3547;50.774;12.918;2023-05-25T02:49:20;4.10;1.00
7014;DHT22;3547;50.774;12.918;2023-05-25T02:51:47;4.10;1.00
7014;DHT22;3547;50.774;12.918;2023-05-25T02:54:13;4.00;1.00
7014;DHT22;3547;50.774;12.918;2023-05-25T02:56:40;4.10;1.00
7014;DHT22;3547;50.774;12.918;2023-05-25T02:59:07;4.20;1.00
7014;DHT22;3547;50.774;12.918;2023-05-25T03:01:34;4.10;1.00
7014;DHT22;3547;50.774;12.918;2023-05-25T03:04:00;4.00;1.00
7014;DHT22;3547;50.774;12.918;2023-05-25T03:06:27;4.00;1.00
7014;DHT22;3547;50.774;12.918;2023-05-25T03:08:53;4.00;1.00
7014;DHT22;3547;50.774;12.918;2023-05-25T03:11:20;4.10;1.00
7014;DHT22;3547;50.774;12.918;2023-05-25T03:13:47;4.10;1.00
7014;DHT22;3547;50.774;12.918;2023-05-25T03:16:14;4.00;1.00
7014;DHT22;3547;50.774;12.918;2023-05-25T03:18:40;4.00;1.00
7014;DHT22;3547;50.774;12.918;2023-05-25T03:21:08;4.00;1.00
7014;DHT22;3547;50.774;12.918;2023-05-25T03:23:34;3.90;1.00
7014;DHT22;3547;50.774;12.918;2023-05-25T03:26:01;3.90;1.00
7014;DHT22;3547;50.774;12.918;2023-05-25T03:28:28;3.90;1.00
7014;DHT22;3547;50.774;12.918;2023-05-25T03:30:54;3.90;1.00
7014;DHT22;3547;50.774;12.918;2023-05-25T03:33:28;3.90;1.00
7014;DHT22;3547;50.774;12.918;2023-05-25T04:49:06;5.00;1.00
7014;DHT22;3547;50.774;12.918;2023-05-25T04:51:41;5.10;1.00
7014;DHT22;3547;50.774;12.918;2023-05-25T04:54:10;5.10;1.00
7014;DHT22;3547;50.774;12.918;2023-05-25T04:56:38;5.20;1.00
7014;DHT22;3547;50.774;12.918;2023-05-25T04:59:08;5.30;1.00
7014;DHT22;3547;50.774;12.918;2023-05-25T05:01:35;5.40;1.00
7014;DHT22;3547;50.774;12.918;2023-05-25T05:04:08;5.40;1.00
7014;DHT22;3547;50.774;12.918;2023-05-25T05:06:59;5.50;1.00
7014;DHT22;3547;50.774;12.918;2023-05-25T05:13:34;5.70;1.00
7014;DHT22;3547;50.774;12.918;2023-05-25T05:29:57;6.40;11.00
7014;DHT22;3547;50.774;12.918;2023-05-25T05:35:46;6.70;10.40
7014;DHT22;3547;50.774;12.918;2023-05-25T05:38:15;6.80;12.70
7014;DHT22;3547;50.774;12.918;2023-05-25T05:40:42;7.00;13.40
7014;DHT22;3547;50.774;12.918;2023-05-25T05:43:13;7.10;11.40
7014;DHT22;3547;50.774;12.918;2023-05-25T05:45:45;7.20;10.10
7014;DHT22;3547;50.774;12.918;2023-05-25T05:48:15;7.30;8.30
7014;DHT22;3547;50.774;12.918;2023-05-25T05:50:43;7.40;10.10
7014;DHT22;3547;50.774;12.918;2023-05-25T05:53:41;7.50;7.40
7014;DHT22;3547;50.774;12.918;2023-05-25T05:59:27;7.70;8.50
7014;DHT22;3547;50.774;12.918;2023-05-25T08:11:30;12.20;1.00
7014;DHT22;3547;50.774;12.918;2023-05-25T08:16:38;12.30;1.00
7014;DHT22;3547;50.774;12.918;2023-05-25T08:19:05;12.30;1.00
7014;DHT22;3547;50.774;12.918;2023-05-25T08:27:41;12.60;1.00
7014;DHT22;3547;50.774;12.918;2023-05-25T12:29:07;22.60;1.00
7014;DHT22;3547;50.774;12.918;2023-05-25T12:31:38;22.20;1.00
7014;DHT22;3547;50.774;12.918;2023-05-25T12:36:44;22.70;1.00
7014;DHT22;3547;50.774;12.918;2023-05-25T12:39:13;22.90;1.00
7014;DHT22;3547;50.774;12.918;2023-05-25T12:41:46;23.30;1.00
7014;DHT22;3547;50.774;12.918;2023-05-25T12:44:27;23.60;1.00
7014;DHT22;3547;50.774;12.918;2023-05-25T12:47:19;23.90;1.00
7014;DHT22;3547;50.774;12.918;2023-05-25T12:49:51;23.30;1.00
7014;DHT22;3547;50.774;12.918;2023-05-25T12:52:35;23.00;1.00
7014;DHT22;3547;50.774;12.918;2023-05-25T12:58:06;21.80;1.00
7014;DHT22;3547;50.774;12.918;2023-05-25T13:00:37;21.50;1.00
7014;DHT22;3547;50.774;12.918;2023-05-25T13:03:04;21.70;1.00
7014;DHT22;3547;50.774;12.918;2023-05-25T13:05:35;21.50;1.00
7014;DHT22;3547;50.774;12.918;2023-05-25T13:08:03;21.60;1.00
7014;DHT22;3547;50.774;12.918;2023-05-25T13:10:30;22.00;1.00
7014;DHT22;3547;50.774;12.918;2023-05-25T13:13:00;22.70;1.00
7014;DHT22;3547;50.774;12.918;2023-05-25T13:15:30;22.10;1.00
7014;DHT22;3547;50.774;12.918;2023-05-25T13:17:56;21.50;1.00
7014;DHT22;3547;50.774;12.918;2023-05-25T13:20:24;21.50;1.00
7014;DHT22;3547;50.774;12.918;2023-05-25T13:22:59;21.70;1.00
7014;DHT22;3547;50.774;12.918;2023-05-25T13:25:25;22.60;1.00
7014;DHT22;3547;50.774;12.918;2023-05-25T13:27:52;22.20;1.00
7014;DHT22;3547;50.774;12.918;2023-05-25T13:36:24;22.30;1.00
7014;DHT22;3547;50.774;12.918;2023-05-25T13:46:38;24.20;1.00
7014;DHT22;3547;50.774;12.918;2023-05-25T14:15:15;25.60;1.00
7014;DHT22;3547;50.774;12.918;2023-05-25T14:17:42;24.50;1.00
7014;DHT22;3547;50.774;12.918;2023-05-25T14:20:09;24.30;1.00
7014;DHT22;3547;50.774;12.918;2023-05-25T14:22:40;24.00;1.00
7014;DHT22;3547;50.774;12.918;2023-05-25T14:25:12;23.70;1.00
7014;DHT22;3547;50.774;12.918;2023-05-25T15:50:34;28.00;1.00
7014;DHT22;3547;50.774;12.918;2023-05-25T15:53:01;27.90;1.00
7014;DHT22;3547;50.774;12.918;2023-05-25T15:55:27;28.00;1.00
7014;DHT22;3547;50.774;12.918;2023-05-25T15:57:53;27.60;1.00
7014;DHT22;3547;50.774;12.918;2023-05-25T16:00:19;27.40;1.00
7014;DHT22;3547;50.774;12.918;2023-05-25T16:02:45;28.80;1.00
7014;DHT22;3547;50.774;12.918;2023-05-25T16:05:11;29.30;1.00
7014;DHT22;3547;50.774;12.918;2023-05-25T16:07:37;28.60;1.00
7014;DHT22;3547;50.774;12.918;2023-05-25T16:10:04;27.90;1.00
7014;DHT22;3547;50.774;12.918;2023-05-25T16:12:30;27.20;1.00
7014;DHT22;3547;50.774;12.918;2023-05-25T16:14:56;26.90;1.00
7014;DHT22;3547;50.774;12.918;2023-05-25T16:17:22;27.40;1.00
7014;DHT22;3547;50.774;12.918;2023-05-25T16:19:49;28.50;1.00
7014;DHT22;3547;50.774;12.918;2023-05-25T16:22:15;30.10;1.00
7014;DHT22;3547;50.774;12.918;2023-05-25T16:24:41;29.70;1.00
7014;DHT22;3547;50.774;12.918;2023-05-25T16:27:07;30.20;1.00
7014;DHT22;3547;50.774;12.918;2023-05-25T16:29:33;30.80;1.00
7014;DHT22;3547;50.774;12.918;2023-05-25T16:32:00;31.70;1.00
7014;DHT22;3547;50.774;12.918;2023-05-25T16:34:26;31.40;1.00
7014;DHT22;3547;50.774;12.918;2023-05-25T16:36:56;30.90;1.00
7014;DHT22;3547;50.774;12.918;2023-05-25T16:39:22;31.40;1.00
7014;DHT22;3547;50.774;12.918;2023-05-25T16:41:48;31.60;1.00
7014;DHT22;3547;50.774;12.918;2023-05-25T16:44:14;31.10;1.00
7014;DHT22;3547;50.774;12.918;2023-05-25T16:46:41;30.80;1.00
7014;DHT22;3547;50.774;12.918;2023-05-25T16:49:07;30.50;1.00
7014;DHT22;3547;50.774;12.918;2023-05-25T16:51:33;30.80;1.00
7014;DHT22;3547;50.774;12.918;2023-05-25T16:53:59;31.30;1.00
7014;DHT22;3547;50.774;12.918;2023-05-25T16:56:26;31.20;1.00
7014;DHT22;3547;50.774;12.918;2023-05-25T16:58:52;30.60;1.00
7014;DHT22;3547;50.774;12.918;2023-05-25T17:01:18;31.40;1.00
7014;DHT22;3547;50.774;12.918;2023-05-25T17:03:44;31.80;1.00
7014;DHT22;3547;50.774;12.918;2023-05-25T17:06:10;32.00;1.00
7014;DHT22;3547;50.774;12.918;2023-05-25T17:08:37;32.80;1.00
7014;DHT22;3547;50.774;12.918;2023-05-25T17:11:03;31.90;1.00
7014;DHT22;3547;50.774;12.918;2023-05-25T17:13:30;32.10;1.00
7014;DHT22;3547;50.774;12.918;2023-05-25T17:15:56;32.20;1.00
7014;DHT22;3547;50.774;12.918;2023-05-25T17:18:22;31.80;1.00
7014;DHT22;3547;50.774;12.918;2023-05-25T17:20:48;31.70;1.00
7014;DHT22;3547;50.774;12.918;2023-05-25T17:23:14;31.20;1.00
7014;DHT22;3547;50.774;12.918;2023-05-25T17:25:41;30.60;1.00
7014;DHT22;3547;50.774;12.918;2023-05-25T17:28:07;31.20;1.00
7014;DHT22;3547;50.774;12.918;2023-05-25T17:30:33;31.50;1.00
7014;DHT22;3547;50.774;12.918;2023-05-25T17:33:00;30.50;1.00
7014;DHT22;3547;50.774;12.918;2023-05-25T17:35:29;28.50;1.00
7014;DHT22;3547;50.774;12.918;2023-05-25T17:37:55;27.30;1.00
7014;DHT22;3547;50.774;12.918;2023-05-25T17:40:22;25.70;1.00
7014;DHT22;3547;50.774;12.918;2023-05-25T17:42:48;24.70;1.00
7014;DHT22;3547;50.774;12.918;2023-05-25T17:45:14;23.70;1.00
7014;DHT22;3547;50.774;12.918;2023-05-25T17:47:40;23.20;1.00
7014;DHT22;3547;50.774;12.918;2023-05-25T17:50:06;22.60;1.00
7014;DHT22;3547;50.774;12.918;2023-05-25T17:52:32;22.50;1.00
7014;DHT22;3547;50.774;12.918;2023-05-25T17:54:58;22.20;1.00
7014;DHT22;3547;50.774;12.918;2023-05-25T17:57:25;21.90;1.00
7014;DHT22;3547;50.774;12.918;2023-05-25T17:59:51;21.50;1.00
7014;DHT22;3547;50.774;12.918;2023-05-25T18:02:17;21.10;1.00
7014;DHT22;3547;50.774;12.918;2023-05-25T18:04:43;20.70;1.00
7014;DHT22;3547;50.774;12.918;2023-05-25T18:07:09;20.20;1.00
7014;DHT22;3547;50.774;12.918;2023-05-25T18:09:35;20.00;1.00
7014;DHT22;3547;50.774;12.918;2023-05-25T18:12:01;19.80;1.00
7014;DHT22;3547;50.774;12.918;2023-05-25T18:14:28;19.40;1.00
7014;DHT22;3547;50.774;12.918;2023-05-25T18:17:00;19.30;1.00
7014;DHT22;3547;50.774;12.918;2023-05-25T18:19:26;19.30;1.00
7014;DHT22;3547;50.774;12.918;2023-05-25T18:21:52;18.80;1.00
7014;DHT22;3547;50.774;12.918;2023-05-25T18:24:18;18.70;1.00
7014;DHT22;3547;50.774;12.918;2023-05-25T18:26:44;18.50;1.00
7014;DHT22;3547;50.774;12.918;2023-05-25T18:29:11;18.30;1.00
7014;DHT22;3547;50.774;12.918;2023-05-25T18:31:37;18.20;1.00
7014;DHT22;3547;50.774;12.918;2023-05-25T18:34:10;18.10;1.00
7014;DHT22;3547;50.774;12.918;2023-05-25T18:36:36;18.10;1.00
7014;DHT22;3547;50.774;12.918;2023-05-25T18:39:02;17.90;1.00
7014;DHT22;3547;50.774;12.918;2023-05-25T18:41:28;17.70;1.00
7014;DHT22;3547;50.774;12.918;2023-05-25T18:43:54;17.60;1.00
7014;DHT22;3547;50.774;12.918;2023-05-25T18:46:30;17.50;1.00
7014;DHT22;3547;50.774;12.918;2023-05-25T18:48:56;17.30;1.00
7014;DHT22;3547;50.774;12.918;2023-05-25T18:51:22;17.20;1.00
7014;DHT22;3547;50.774;12.918;2023-05-25T18:53:50;17.10;1.00
7014;DHT22;3547;50.774;12.918;2023-05-25T18:56:17;16.80;1.00
7014;DHT22;3547;50.774;12.918;2023-05-25T18:58:43;16.60;1.00
7014;DHT22;3547;50.774;12.918;2023-05-25T19:01:09;16.40;1.00
7014;DHT22;3547;50.774;12.918;2023-05-25T19:03:35;16.30;1.00
7014;DHT22;3547;50.774;12.918;2023-05-25T19:06:06;16.10;1.00
7014;DHT22;3547;50.774;12.918;2023-05-25T19:08:32;16.10;1.00
7014;DHT22;3547;50.774;12.918;2023-05-25T19:10:59;16.00;1.00
7014;DHT22;3547;50.774;12.918;2023-05-25T19:13:25;15.80;1.00
7014;DHT22;3547;50.774;12.918;2023-05-25T19:15:51;15.60;1.00
7014;DHT22;3547;50.774;12.918;2023-05-25T19:18:17;15.40;1.00
7014;DHT22;3547;50.774;12.918;2023-05-25T19:20:43;15.20;1.00
7014;DHT22;3547;50.774;12.918;2023-05-25T19:23:09;15.10;1.00
7014;DHT22;3547;50.774;12.918;2023-05-25T19:25:36;14.80;1.00
7014;DHT22;3547;50.774;12.918;2023-05-25T19:28:02;14.80;1.00
7014;DHT22;3547;50.774;12.918;2023-05-25T19:30:28;14.60;1.00
7014;DHT22;3547;50.774;12.918;2023-05-25T19:32:54;14.50;1.00
7014;DHT22;3547;50.774;12.918;2023-05-25T19:35:20;14.40;1.00
7014;DHT22;3547;50.774;12.918;2023-05-25T19:37:46;14.30;1.00
7014;DHT22;3547;50.774;12.918;2023-05-25T19:40:12;14.20;1.00
7014;DHT22;3547;50.774;12.918;2023-05-25T19:42:39;14.20;1.00
7014;DHT22;3547;50.774;12.918;2023-05-25T19:45:05;14.10;1.00
7014;DHT22;3547;50.774;12.918;2023-05-25T19:47:31;14.00;1.00
7014;DHT22;3547;50.774;12.918;2023-05-25T19:49:57;14.00;1.00
7014;DHT22;3547;50.774;12.918;2023-05-25T19:52:24;13.90;1.00
7014;DHT22;3547;50.774;12.918;2023-05-25T19:54:50;13.70;1.00
7014;DHT22;3547;50.774;12.918;2023-05-25T19:57:16;13.60;1.00
7014;DHT22;3547;50.774;12.918;2023-05-25T19:59:42;13.50;1.00
7014;DHT22;3547;50.774;12.918;2023-05-25T20:02:08;13.40;1.00
7014;DHT22;3547;50.774;12.918;2023-05-25T20:04:34;13.30;1.00
7014;DHT22;3547;50.774;12.918;2023-05-25T20:07:00;13.20;1.00
7014;DHT22;3547;50.774;12.918;2023-05-25T20:09:26;13.10;1.00
7014;DHT22;3547;50.774;12.918;2023-05-25T20:11:57;13.00;1.00
7014;DHT22;3547;50.774;12.918;2023-05-25T20:14:23;13.00;1.00
7014;DHT22;3547;50.774;12.918;2023-05-25T20:16:50;12.80;1.00
7014;DHT22;3547;50.774;12.918;2023-05-25T20:19:16;12.70;1.00
7014;DHT22;3547;50.774;12.918;2023-05-25T20:21:49;12.60;1.00
7014;DHT22;3547;50.774;12.918;2023-05-25T20:24:15;12.70;1.00
7014;DHT22;3547;50.774;12.918;2023-05-25T20:26:41;12.60;1.00
7014;DHT22;3547;50.774;12.918;2023-05-25T20:29:07;12.60;1.00
7014;DHT22;3547;50.774;12.918;2023-05-25T20:31:33;12.30;1.00
7014;DHT22;3547;50.774;12.918;2023-05-25T20:34:00;12.30;1.00
7014;DHT22;3547;50.774;12.918;2023-05-25T20:36:26;12.20;1.00
7014;DHT22;3547;50.774;12.918;2023-05-25T20:38:52;12.20;1.00
7014;DHT22;3547;50.774;12.918;2023-05-25T20:41:19;12.10;1.00
7014;DHT22;3547;50.774;12.918;2023-05-25T20:43:45;12.10;1.00
7014;DHT22;3547;50.774;12.918;2023-05-25T20:46:11;12.00;1.00
7014;DHT22;3547;50.774;12.918;2023-05-25T20:48:38;11.90;1.00
7014;DHT22;3547;50.774;12.918;2023-05-25T20:51:04;11.80;1.00
7014;DHT22;3547;50.774;12.918;2023-05-25T20:53:30;11.80;1.00
7014;DHT22;3547;50.774;12.918;2023-05-25T20:55:56;11.70;1.00
7014;DHT22;3547;50.774;12.918;2023-05-25T20:58:23;11.60;1.00
7014;DHT22;3547;50.774;12.918;2023-05-25T21:00:49;11.40;1.00
7014;DHT22;3547;50.774;12.918;2023-05-25T21:03:16;11.40;1.00
7014;DHT22;3547;50.774;12.918;2023-05-25T21:05:42;11.30;1.00
7014;DHT22;3547;50.774;12.918;2023-05-25T21:08:09;11.20;1.00
7014;DHT22;3547;50.774;12.918;2023-05-25T21:10:36;11.20;1.00
7014;DHT22;3547;50.774;12.918;2023-05-25T21:13:02;11.10;1.00
7014;DHT22;3547;50.774;12.918;2023-05-25T21:15:28;11.00;1.00
7014;DHT22;3547;50.774;12.918;2023-05-25T21:17:55;11.00;1.00
7014;DHT22;3547;50.774;12.918;2023-05-25T21:20:21;11.00;1.00
7014;DHT22;3547;50.774;12.918;2023-05-25T21:22:47;10.90;1.00
7014;DHT22;3547;50.774;12.918;2023-05-25T21:25:13;10.90;1.00
7014;DHT22;3547;50.774;12.918;2023-05-25T21:27:39;10.90;1.00
7014;DHT22;3547;50.774;12.918;2023-05-25T21:30:06;10.90;1.00
7014;DHT22;3547;50.774;12.918;2023-05-25T21:32:32;10.90;1.00
7014;DHT22;3547;50.774;12.918;2023-05-25T21:34:58;10.80;1.00
7014;DHT22;3547;50.774;12.918;2023-05-25T21:37:24;10.80;1.00
7014;DHT22;3547;50.774;12.918;2023-05-25T21:39:50;10.70;1.00
7014;DHT22;3547;50.774;12.918;2023-05-25T21:42:16;10.60;1.00
7014;DHT22;3547;50.774;12.918;2023-05-25T21:44:42;10.40;1.00
7014;DHT22;3547;50.774;12.918;2023-05-25T21:47:09;10.50;1.00
7014;DHT22;3547;50.774;12.918;2023-05-25T21:49:35;10.40;1.00
7014;DHT22;3547;50.774;12.918;2023-05-25T21:52:02;10.40;1.00
7014;DHT22;3547;50.774;12.918;2023-05-25T21:54:28;10.40;1.00
7014;DHT22;3547;50.774;12.918;2023-05-25T21:56:54;10.20;1.00
7014;DHT22;3547;50.774;12.918;2023-05-25T21:59:20;10.30;1.00
7014;DHT22;3547;50.774;12.918;2023-05-25T22:01:46;10.10;1.00
7014;DHT22;3547;50.774;12.918;2023-05-25T22:04:12;10.10;1.00
7014;DHT22;3547;50.774;12.918;2023-05-25T22:06:38;10.00;1.00
7014;DHT22;3547;50.774;12.918;2023-05-25T22:09:05;10.00;1.00
7014;DHT22;3547;50.774;12.918;2023-05-25T22:11:32;9.90;1.00
7014;DHT22;3547;50.774;12.918;2023-05-25T22:13:58;9.80;1.00
7014;DHT22;3547;50.774;12.918;2023-05-25T22:16:26;9.70;1.00
7014;DHT22;3547;50.774;12.918;2023-05-25T22:18:52;9.70;1.00
7014;DHT22;3547;50.774;12.918;2023-05-25T22:21:18;9.60;1.00
7014;DHT22;3547;50.774;12.918;2023-05-25T22:23:44;9.60;1.00
7014;DHT22;3547;50.774;12.918;2023-05-25T22:26:11;9.60;1.00
7014;DHT22;3547;50.774;12.918;2023-05-25T22:28:37;9.50;1.00
7014;DHT22;3547;50.774;12.918;2023-05-25T22:31:03;9.50;1.00
7014;DHT22;3547;50.774;12.918;2023-05-25T22:33:29;9.60;1.00
7014;DHT22;3547;50.774;12.918;2023-05-25T22:35:55;9.50;1.00
7014;DHT22;3547;50.774;12.918;2023-05-25T22:38:21;9.50;1.00
7014;DHT22;3547;50.774;12.918;2023-05-25T22:40:47;9.40;1.00
7014;DHT22;3547;50.774;12.918;2023-05-25T22:43:14;9.30;1.00
7014;DHT22;3547;50.774;12.918;2023-05-25T22:45:40;9.30;1.00
7014;DHT22;3547;50.774;12.918;2023-05-25T22:48:07;9.40;1.00
7014;DHT22;3547;50.774;12.918;2023-05-25T22:50:33;9.30;1.00
7014;DHT22;3547;50.774;12.918;2023-05-25T22:52:59;9.30;1.00
7014;DHT22;3547;50.774;12.918;2023-05-25T22:55:25;9.30;1.00
7014;DHT22;3547;50.774;12.918;2023-05-25T22:57:51;9.20;1.00
7014;DHT22;3547;50.774;12.918;2023-05-25T23:00:18;9.20;1.00
7014;DHT22;3547;50.774;12.918;2023-05-25T23:02:44;9.20;1.00
7014;DHT22;3547;50.774;12.918;2023-05-25T23:05:10;9.00;1.00
7014;DHT22;3547;50.774;12.918;2023-05-25T23:07:36;9.00;1.00
7014;DHT22;3547;50.774;12.918;2023-05-25T23:10:02;9.00;1.00
7014;DHT22;3547;50.774;12.918;2023-05-25T23:12:28;8.90;1.00
7014;DHT22;3547;50.774;12.918;2023-05-25T23:14:55;8.90;1.00
7014;DHT22;3547;50.774;12.918;2023-05-25T23:17:24;8.90;1.00
7014;DHT22;3547;50.774;12.918;2023-05-25T23:19:50;8.80;1.00
7014;DHT22;3547;50.774;12.918;2023-05-25T23:22:18;8.80;1.00
7014;DHT22;3547;50.774;12.918;2023-05-25T23:24:44;8.80;1.00
7014;DHT22;3547;50.774;12.918;2023-05-25T23:27:10;8.70;1.00
7014;DHT22;3547;50.774;12.918;2023-05-25T23:29:36;8.60;1.00
7014;DHT22;3547;50.774;12.918;2023-05-25T23:32:02;8.60;1.00
7014;DHT22;3547;50.774;12.918;2023-05-25T23:34:29;8.60;1.00
7014;DHT22;3547;50.774;12.918;2023-05-25T23:36:55;8.60;1.00
7014;DHT22;3547;50.774;12.918;2023-05-25T23:39:23;8.60;1.00
7014;DHT22;3547;50.774;12.918;2023-05-25T23:41:50;8.50;1.00
7014;DHT22;3547;50.774;12.918;2023-05-25T23:44:16;8.40;1.00
7014;DHT22;3547;50.774;12.918;2023-05-25T23:46:42;8.40;1.00
7014;DHT22;3547;50.774;12.918;2023-05-25T23:49:09;8.40;1.00
7014;DHT22;3547;50.774;12.918;2023-05-25T23:51:35;8.30;1.00
7014;DHT22;3547;50.774;12.918;2023-05-25T23:54:02;8.40;1.00
7014;DHT22;3547;50.774;12.918;2023-05-25T23:56:28;8.30;1.00
7014;DHT22;3547;50.774;12.918;2023-05-25T23:58:56;8.30;1.00
